Aviation Digital Data Service (ADDS)

Output produced by METARs form (1205 UTC 26 March 2019)
found at http://www.aviationweather.gov/metar/data/
 
TAF SCFA 261034Z 2612/2712 18004KT 9999 FEW015 TX22/2618Z TN16/2706Z 
     BECMG 2616/2618 22012KT FEW030 
     BECMG 2700/2702 18005KT FEW015 
     BECMG 2706/2712 03004KT
       
TAF SCAR 261033Z 2612/2712 09004KT CAVOK TX24/2619Z TN18/2706Z 
     BECMG 2615/2617 22010KT 
     BECMG 2622/2700 18005KT 
     BECMG 2704/2706 06004KT
       
TAF SCBA 261022Z 2612/2712 VRB03KT CAVOK TX20/2620Z TN00/2711Z 
     BECMG 2614/2616 30008KT 
     BECMG 2702/2704 VRB03KT
       
TAF SCCF 261033Z 2612/2712 11015KT CAVOK TX25/2618Z TN08/2706Z 
     BECMG 2614/2615 23005KT 
     BECMG 2616/2618 27020KT 
     BECMG 2700/2702 24010KT 
     BECMG 2704/2706 11015KT
       
TAF SCIE 261027Z 2612/2712 30004KT CAVOK TX19/2618Z TN09/2711Z 
     TEMPO 2612/2614 5000 BR SCT010 BKN015 
     BECMG 2618/2620 33008KT 
     BECMG 2701/2703 01004KT 
     TEMPO 2706/2712 3000 BR BKN005 OVC008
       
TAF COR SCAT 261105Z 2612/2712 33004KT 9999 OVC015 TX22/2618Z TN15/ 2706Z 
     BECMG 2616/2618 27010KT CAVOK 
     BECMG 2700/2702 23005KT BKN015 
     BECMG 2703/2705 OVC010 
     BECMG 2706/2708 33004KT
       
TAF SCCY 261025Z 2612/2624 VRB03KT CAVOK TN02/2612Z TX20/2619Z 
     BECMG 2617/2619 29007KT
       
TAF SCDA 261033Z 2612/2712 18004KT CAVOK TX25/2618Z TN18/2706Z 
     BECMG 2615/2617 23010KT 
     BECMG 2701/2703 18004KT 
     BECMG 2704/2706 10004KT
       
TAF SCSE 261025Z 2612/2712 28004KT 9999 OVC010 TX16/2619Z TN13/2711Z 
     TEMPO 2612/2615 4000 BR SCT005 OVC008 
     BECMG 2616/2618 28010KT SCT012 BKN018 
     BECMG 2618/2620 SCT018 
     BECMG 2701/2703 27004KT SCT012 BKN015
       
TAF SCJO 261024Z 2612/2624 VRB03KT CAVOK TN07/2612Z TX21/2619Z 
     BECMG 2614/2616 15008KT 
       
TAF COR SCTE 261020Z 2612/2712 VRB03KT 0400 FG OVC003 TX20/2620Z TN06/2711Z 
     BECMG 2613/2615 2000 BR SCT008 
     BECMG 2617/2619 16010KT CAVOK 
     BECMG 2700/2702 VRB03KT 
     TEMPO 2709/2711 0500 FG BKN005
       
TAF SCNT 261045Z 2612/2700 31005KT 9999 SCT040 TN10/2612Z TX16/2618Z 
     TEMPO 2615/2619 30010KT 
     BECMG 2616/2618 FEW045
       
TAF SCCI 261043Z 2612/2712 29018G28KT 9999 SCT040 TN10/2612Z TX15/2618Z 
     PROB40 
     TEMPO 2612/2615 8000 -RA FEW020 BKN030 
     BECMG 2613/2615 FEW040 
     TEMPO 2615/2621 29022G33KT 
     BECMG 2706/2708 30020G35KT
       
TAF SCEL 261026Z 2612/2712 16004KT 8000 NSC TX29/2619Z TN10/2711Z 
     TEMPO 2612/2614 VRB02KT 5000 HZ NSC 
     BECMG 2616/2618 18008KT CAVOK 
     BECMG 2620/2622 20012KT 
     BECMG 2701/2703 15006KT 
     TEMPO 2706/2712 VRB02KT 7000 NSC